EST,Max TemperatureF,Mean TemperatureF,Min TemperatureF,Max Dew PointF,MeanDew PointF,Min DewpointF,Max Humidity, Mean Humidity, Min Humidity, Max Sea Level PressureIn, Mean Sea Level PressureIn, Min Sea Level PressureIn, Max VisibilityMiles, Mean VisibilityMiles, Min VisibilityMiles, Max Wind SpeedMPH, Mean Wind SpeedMPH, Max Gust SpeedMPH,PrecipitationIn, CloudCover, Events, WindDirDegrees
2011-11-1,60,46,32,36,34,32,96,67,37,30.31,30.25,30.20,10,10,9,14,7,16,0.00,0,,171
2011-11-2,65,53,41,38,35,33,73,54,34,30.29,30.21,30.09,10,10,10,21,10,26,0.00,4,,186
2011-11-3,57,50,42,49,41,35,93,72,50,30.07,29.99,29.90,10,9,4,18,8,28,0.23,7,Rain,133
2011-11-4,55,45,35,46,36,28,93,66,38,30.31,30.18,30.00,10,9,5,23,14,29,0.02,3,Rain,32
2011-11-5,56,44,31,30,28,26,78,55,32,30.37,30.30,30.23,10,10,10,13,7,16,0.00,0,,113
2011-11-6,60,48,35,36,33,28,70,53,36,30.34,30.28,30.22,10,10,10,20,11,25,0.00,1,,175
2011-11-7,65,57,49,50,44,36,77,66,54,30.32,30.27,30.23,10,10,10,14,8,18,0.00,5,,187
2011-11-8,68,57,46,49,48,45,93,71,49,30.21,30.13,30.02,10,10,10,17,9,21,0.00,3,,171
2011-11-9,61,50,39,54,45,33,100,81,62,30.07,29.91,29.76,10,10,9,35,16,43,0.26,7,Rain,209
2011-11-10,46,39,31,36,29,23,96,69,41,30.08,30.04,29.99,10,10,10,26,13,33,T,4,,255
2011-11-11,43,36,28,28,26,24,92,71,49,30.12,30.04,29.91,10,10,8,20,12,23,0.00,2,,239
2011-11-12,59,50,40,34,30,24,65,51,36,30.04,29.96,29.90,10,10,10,23,16,31,0.00,3,,199
2011-11-13,65,59,53,52,43,28,65,52,38,29.90,29.77,29.65,10,10,10,29,19,41,T,7,,195
2011-11-14,70,63,56,59,57,55,93,78,63,29.78,29.71,29.60,10,8,2,30,15,44,0.92,8,Rain,220
2011-11-15,57,54,50,56,50,47,100,92,83,29.91,29.86,29.75,10,10,7,20,10,26,0.01,8,Rain,198
2011-11-16,54,44,34,54,43,25,100,77,53,30.13,29.94,29.84,10,7,3,18,9,23,0.04,6,Rain,315
2011-11-17,41,33,24,26,18,9,75,54,32,30.34,30.22,30.13,10,10,10,30,12,38,0.00,2,,274
2011-11-18,46,36,25,18,16,11,68,47,25,30.42,30.30,30.14,10,10,10,22,13,29,0.00,1,,193
2011-11-19,59,49,39,46,33,18,67,52,36,30.18,30.09,29.98,10,10,10,23,16,30,0.00,5,,189
2011-11-20,59,52,45,56,49,42,100,84,67,30.25,30.16,30.02,10,6,2,20,10,26,0.30,8,Rain,305
2011-11-21,46,44,41,43,42,39,96,91,86,30.30,30.23,30.17,10,6,2,13,8,15,0.02,8,Rain,62
2011-11-22,61,51,41,58,47,39,100,92,84,30.19,29.95,29.63,10,4,0,36,14,45,1.48,8,Fog-Rain,105
2011-11-23,51,45,38,39,38,34,93,73,52,30.31,30.14,29.86,10,9,5,23,12,29,T,5,,301
2011-11-24,46,43,39,41,39,37,100,88,76,30.37,30.32,30.27,10,6,0,17,10,23,0.00,6,,214
2011-11-25,59,49,39,40,37,33,100,74,47,30.26,30.18,30.11,10,9,4,21,13,26,0.00,1,,195
2011-11-26,64,56,48,46,40,31,63,57,50,30.15,30.06,29.92,10,10,10,21,14,28,0.00,5,,183
2011-11-27,59,51,43,55,48,42,100,81,62,30.00,29.89,29.83,10,8,2,20,12,29,0.76,8,Rain,253
2011-11-28,48,44,40,47,43,39,100,95,89,30.03,29.90,29.72,10,7,2,18,13,23,1.12,8,Rain,28
2011-11-29,49,41,32,48,39,30,100,96,92,29.75,29.67,29.61,10,4,0,24,12,30,0.65,8,Fog-Rain-Snow,263
2011-11-30,38,33,27,31,29,25,92,81,70,30.24,30.01,29.75,10,9,2,23,11,31,T,5,Snow,284